createdAt,value
2022-10-11T04:40:33.475Z,100.00
2022-10-11T04:43:36.848Z,100.00
2022-10-11T04:46:39.548Z,100.00
2022-10-11T04:49:42.527Z,100.00
2022-10-11T04:52:45.188Z,100.00
2022-10-11T04:55:58.647Z,100.00
2022-10-11T04:59:01.322Z,100.00
2022-10-11T05:02:04.181Z,100.00
2022-10-11T05:05:07.307Z,100.00
2022-10-11T05:08:10.259Z,100.00
2022-10-11T05:11:15.930Z,100.00
2022-10-11T05:14:20.306Z,100.00
2022-10-11T05:17:22.936Z,100.00
2022-10-11T05:20:26.154Z,100.00
2022-10-11T05:23:29.963Z,100.00
2022-10-11T05:26:32.938Z,100.00
2022-10-11T05:29:35.585Z,100.00
2022-10-11T05:32:38.822Z,100.00
2022-10-11T05:35:41.676Z,100.00
2022-10-11T05:38:44.723Z,100.00
2022-10-11T05:41:47.462Z,100.00
2022-10-11T05:44:50.333Z,100.00
2022-10-11T05:47:53.000Z,100.00
2022-10-11T05:51:00.851Z,100.00
2022-10-11T05:54:03.434Z,100.00
2022-10-11T05:57:06.379Z,100.00
2022-10-11T06:00:10.349Z,100.00
2022-10-11T06:03:15.277Z,100.00
2022-10-11T06:06:18.923Z,100.00
2022-10-11T06:09:21.539Z,100.00
2022-10-11T06:12:24.656Z,100.00
2022-10-11T06:15:27.650Z,100.00
2022-10-11T06:18:31.517Z,100.00
2022-10-11T06:21:34.535Z,100.00
2022-10-11T06:24:37.434Z,100.00
2022-10-11T06:27:40.015Z,100.00
2022-10-11T06:30:42.855Z,100.00
2022-10-11T06:33:45.495Z,100.00
2022-10-11T06:36:48.437Z,100.00
2022-10-11T07:42:45.371Z,95.44
2022-10-11T07:45:53.708Z,89.54
2022-10-11T07:48:56.453Z,84.35
2022-10-11T07:51:59.405Z,85.79
2022-10-11T07:55:02.019Z,88.01
2022-10-11T07:58:04.982Z,89.43
2022-10-11T08:01:10.143Z,88.21
2022-10-11T08:04:13.312Z,85.99
2022-10-11T08:07:15.885Z,84.45
2022-10-11T08:10:19.434Z,85.78
2022-10-11T08:13:22.112Z,83.58
2022-10-11T08:16:25.303Z,82.35
2022-10-11T08:19:28.262Z,82.05
2022-10-11T08:22:31.217Z,78.24
2022-10-11T08:25:38.694Z,80.78
2022-10-11T08:28:41.732Z,76.76
2022-10-11T08:31:44.690Z,81.29
2022-10-11T08:34:47.633Z,80.57
2022-10-11T08:37:50.830Z,79.75
2022-10-11T08:40:58.646Z,78.88
2022-10-11T08:44:04.285Z,79.95
2022-10-11T08:47:25.872Z,78.84
2022-10-11T08:50:28.640Z,78.93
2022-10-11T08:53:41.449Z,75.44
2022-10-11T08:56:45.430Z,78.96
2022-10-11T08:59:56.805Z,80.29
2022-10-11T09:03:23.798Z,75.93
2022-10-11T09:06:31.917Z,78.26
2022-10-11T09:10:12.184Z,77.08
2022-10-11T09:13:34.201Z,75.48
2022-10-11T09:16:46.668Z,76.22
2022-10-11T09:20:04.650Z,76.97
2022-10-11T09:23:16.329Z,78.74
2022-10-11T09:26:30.790Z,75.18
2022-10-11T09:29:33.305Z,76.77
2022-10-11T09:32:40.207Z,77.89
2022-10-11T09:35:49.684Z,77.38
2022-10-11T09:39:06.469Z,78.00
2022-10-11T09:42:11.313Z,75.83
2022-10-11T09:45:22.607Z,78.18
2022-10-11T09:48:30.592Z,77.89
2022-10-11T09:51:34.621Z,75.26
2022-10-11T09:54:39.092Z,75.56
2022-10-11T09:57:42.106Z,77.64
2022-10-11T10:01:02.806Z,77.74
2022-10-11T10:04:13.419Z,77.63
2022-10-11T10:07:16.105Z,75.43
2022-10-11T10:10:59.547Z,74.59
2022-10-11T10:14:02.520Z,74.24
2022-10-11T10:17:23.786Z,81.38
2022-10-11T10:20:31.812Z,77.54
2022-10-11T10:23:37.582Z,77.53
2022-10-11T10:26:40.578Z,76.33
2022-10-11T10:29:59.525Z,78.88
2022-10-11T10:33:07.385Z,78.35
2022-10-11T10:36:18.816Z,79.18
2022-10-11T10:39:24.445Z,75.97
2022-10-11T10:42:28.252Z,74.26
2022-10-11T10:46:09.905Z,80.61
2022-10-11T10:49:41.555Z,76.62
2022-10-11T10:52:53.649Z,74.67
2022-10-11T10:56:18.316Z,76.13
2022-10-11T10:59:30.358Z,75.26
2022-10-11T11:02:42.525Z,76.90
2022-10-11T11:05:54.493Z,78.67
2022-10-11T11:09:20.754Z,75.04
2022-10-11T11:12:23.379Z,74.39
2022-10-11T11:15:45.658Z,75.03
2022-10-11T11:18:58.407Z,75.68
2022-10-11T11:22:13.531Z,76.74
2022-10-11T11:25:35.914Z,74.63
2022-10-11T11:28:48.329Z,75.73
2022-10-11T11:32:11.726Z,78.04
2022-10-11T11:35:46.427Z,76.82
2022-10-11T11:38:55.571Z,78.91
2022-10-11T11:42:07.977Z,78.45
2022-10-11T11:45:36.360Z,75.46
2022-10-11T11:48:40.293Z,84.38
2022-10-11T11:51:45.604Z,85.39
2022-10-11T11:55:03.724Z,86.37
2022-10-11T11:58:22.431Z,86.32
2022-10-11T12:01:32.902Z,88.70
2022-10-11T12:04:39.925Z,87.37
2022-10-11T12:08:06.607Z,90.67
2022-10-11T12:11:21.474Z,90.03
2022-10-11T12:14:24.985Z,83.74
2022-10-11T12:17:28.421Z,88.52
2022-10-11T12:20:38.114Z,89.37
2022-10-11T12:23:44.638Z,88.88
2022-10-11T12:26:55.256Z,89.41
2022-10-11T12:29:58.205Z,91.74
2022-10-11T12:33:13.817Z,91.37
2022-10-11T12:36:34.150Z,90.76
2022-10-11T12:39:44.733Z,91.01
2022-10-11T12:43:16.685Z,84.99
2022-10-11T12:46:28.483Z,82.27
2022-10-11T12:50:04.933Z,83.26
2022-10-11T12:53:57.706Z,82.30
2022-10-11T12:57:12.165Z,77.86
2022-10-11T13:00:28.975Z,76.79
2022-10-11T13:03:40.295Z,78.75
2022-10-11T13:06:56.772Z,78.29
2022-10-11T13:10:00.311Z,78.87
2022-10-11T13:13:06.750Z,77.64
2022-10-11T13:16:14.371Z,80.94
2022-10-11T13:19:17.693Z,79.82
2022-10-11T13:22:23.729Z,74.53
2022-10-11T13:25:29.510Z,77.14
2022-10-11T13:28:36.278Z,81.51
2022-10-11T13:31:40.837Z,82.12
2022-10-11T13:34:46.910Z,81.01
2022-10-11T13:37:49.928Z,83.20
2022-10-11T13:40:53.166Z,83.29
2022-10-11T13:43:58.192Z,85.55
2022-10-11T13:47:01.204Z,81.00
2022-10-11T13:50:16.282Z,82.89
2022-10-11T13:53:19.146Z,77.27
2022-10-11T13:56:21.898Z,82.08
2022-10-11T13:59:28.212Z,89.13
2022-10-11T14:02:32.508Z,92.68
2022-10-11T14:05:44.569Z,91.94
2022-10-11T14:08:55.330Z,89.70
2022-10-11T14:12:40.568Z,94.17
2022-10-11T14:15:43.126Z,88.70
2022-10-11T14:18:48.745Z,92.23
2022-10-11T14:21:53.389Z,95.91
2022-10-11T14:24:56.936Z,92.58
2022-10-11T14:27:59.912Z,96.53
2022-10-11T14:31:03.177Z,97.71
2022-10-11T14:34:06.338Z,97.25
2022-10-11T14:37:12.580Z,98.35
2022-10-11T14:40:24.232Z,92.93
2022-10-11T14:43:27.352Z,95.69
2022-10-11T14:46:31.053Z,96.29
2022-10-11T14:49:37.182Z,99.06
2022-10-11T14:52:42.955Z,100.00
2022-10-11T14:55:46.296Z,100.00
2022-10-11T14:58:52.519Z,100.00
2022-10-11T15:01:55.533Z,100.00
2022-10-11T15:04:58.309Z,100.00
2022-10-11T15:08:05.959Z,100.00
2022-10-11T15:11:11.664Z,100.00
2022-10-11T15:14:15.158Z,100.00
2022-10-11T15:17:18.237Z,100.00
2022-10-11T15:20:42.632Z,100.00
2022-10-11T15:23:54.801Z,100.00
2022-10-11T15:26:57.900Z,100.00
2022-10-11T15:30:17.828Z,100.00
2022-10-11T15:33:48.631Z,100.00
2022-10-11T15:45:41.007Z,100.00
2022-10-11T15:48:55.662Z,100.00
2022-10-11T15:52:13.536Z,100.00
2022-10-11T15:56:17.217Z,100.00
2022-10-11T15:59:22.415Z,100.00
2022-10-11T16:09:16.717Z,100.00
2022-10-11T16:12:45.382Z,100.00
2022-10-11T16:16:11.411Z,100.00
2022-10-11T16:19:54.384Z,100.00
2022-10-11T16:23:03.930Z,100.00
2022-10-11T16:26:49.813Z,100.00
2022-10-11T16:29:54.485Z,100.00
2022-10-11T16:33:03.583Z,100.00
2022-10-11T16:36:26.649Z,100.00
2022-10-11T16:39:29.913Z,100.00
2022-10-11T16:42:53.030Z,100.00
2022-10-11T16:49:52.442Z,100.00
2022-10-11T16:56:59.712Z,100.00
2022-10-11T17:00:26.770Z,100.00
2022-10-11T17:03:29.668Z,100.00
2022-10-11T17:06:33.415Z,100.00
2022-10-11T17:09:44.001Z,100.00
2022-10-11T17:13:18.987Z,100.00
2022-10-11T17:16:55.488Z,100.00
2022-10-11T17:20:32.640Z,100.00
2022-10-11T17:42:12.311Z,100.00
2022-10-11T17:45:15.582Z,100.00
2022-10-11T17:48:18.571Z,100.00
2022-10-11T17:51:28.403Z,100.00
2022-10-11T17:54:31.466Z,100.00
2022-10-11T17:57:34.692Z,100.00
2022-10-11T18:00:39.472Z,100.00
2022-10-11T18:03:50.310Z,100.00
2022-10-11T18:06:53.739Z,100.00
2022-10-11T18:09:57.171Z,100.00
2022-10-11T18:13:04.346Z,100.00
2022-10-11T18:16:30.668Z,100.00
2022-10-11T18:19:33.330Z,100.00
2022-10-11T18:22:36.744Z,100.00
2022-10-11T18:25:40.036Z,100.00
2022-10-11T18:28:43.851Z,100.00
2022-10-11T18:35:25.195Z,100.00
2022-10-11T18:39:12.288Z,100.00
2022-10-11T18:42:20.407Z,100.00
2022-10-11T18:45:27.483Z,100.00
2022-10-11T18:48:32.723Z,100.00
2022-10-11T18:51:38.828Z,100.00
2022-10-11T18:54:46.171Z,100.00
2022-10-11T18:57:54.022Z,100.00
2022-10-11T19:01:08.401Z,100.00
2022-10-11T19:04:18.344Z,100.00
2022-10-11T19:07:22.990Z,100.00
2022-10-11T19:10:45.591Z,100.00
2022-10-11T19:14:30.333Z,100.00
2022-10-11T19:17:33.762Z,100.00
2022-10-11T19:39:32.123Z,100.00
2022-10-11T19:42:40.541Z,100.00
2022-10-11T19:45:44.166Z,100.00
2022-10-11T19:48:48.938Z,100.00
2022-10-11T19:51:53.871Z,100.00
2022-10-11T19:54:57.331Z,100.00
2022-10-11T19:58:04.544Z,100.00
2022-10-11T20:01:16.829Z,100.00
2022-10-11T20:04:54.394Z,100.00
2022-10-11T20:11:27.208Z,100.00
2022-10-11T20:14:30.485Z,100.00
2022-10-11T20:17:52.334Z,100.00
2022-10-11T20:21:01.508Z,100.00
2022-10-11T20:43:21.573Z,100.00
2022-10-11T20:46:32.409Z,100.00
2022-10-11T20:49:42.331Z,100.00
2022-10-11T20:52:46.085Z,100.00
2022-10-11T20:55:50.370Z,100.00
2022-10-11T20:58:56.401Z,100.00
2022-10-11T21:01:59.801Z,100.00
2022-10-11T21:05:03.462Z,100.00
2022-10-11T21:08:07.131Z,100.00
2022-10-11T21:11:11.673Z,100.00
2022-10-11T21:14:15.329Z,100.00
2022-10-11T21:17:18.939Z,100.00
2022-10-11T21:20:22.013Z,100.00
2022-10-11T21:23:24.960Z,100.00
2022-10-11T21:26:28.699Z,100.00
2022-10-11T21:29:31.574Z,100.00
2022-10-11T21:32:34.669Z,100.00
2022-10-11T21:35:39.890Z,100.00
2022-10-11T21:38:42.669Z,100.00
2022-10-11T21:41:45.603Z,100.00
2022-10-11T21:44:48.151Z,100.00
2022-10-11T21:47:51.211Z,100.00
2022-10-11T21:50:56.826Z,100.00
2022-10-11T21:54:00.609Z,100.00
2022-10-11T21:57:03.353Z,100.00
2022-10-11T22:00:07.357Z,100.00
2022-10-11T22:03:15.798Z,100.00
2022-10-11T22:06:18.961Z,100.00
2022-10-11T22:09:21.611Z,100.00
2022-10-11T22:12:24.577Z,100.00
2022-10-11T22:15:27.418Z,100.00
2022-10-11T22:18:33.454Z,100.00
2022-10-11T22:21:38.266Z,100.00
2022-10-11T22:24:44.306Z,100.00
2022-10-11T22:27:47.209Z,100.00
2022-10-11T22:30:50.105Z,100.00
2022-10-11T22:33:57.766Z,100.00
2022-10-11T22:37:00.669Z,100.00
2022-10-11T22:40:03.473Z,100.00
2022-10-11T22:43:06.585Z,100.00
2022-10-11T22:46:09.451Z,100.00
2022-10-11T22:49:13.053Z,100.00
2022-10-11T22:52:15.630Z,100.00
2022-10-11T22:55:20.214Z,100.00
2022-10-11T22:58:23.082Z,100.00
2022-10-11T23:01:26.026Z,100.00
2022-10-11T23:04:28.829Z,100.00
2022-10-11T23:07:31.957Z,100.00
2022-10-11T23:10:34.646Z,100.00
2022-10-11T23:13:37.547Z,100.00
2022-10-11T23:16:40.153Z,100.00
2022-10-11T23:19:43.040Z,100.00
2022-10-11T23:22:45.658Z,100.00
2022-10-11T23:25:48.995Z,100.00
2022-10-11T23:28:55.145Z,100.00
2022-10-11T23:31:58.161Z,100.00
2022-10-11T23:35:00.807Z,100.00
2022-10-11T23:38:04.064Z,100.00
2022-10-11T23:41:06.582Z,100.00
2022-10-11T23:44:12.910Z,100.00
2022-10-11T23:47:15.537Z,100.00
2022-10-11T23:50:19.321Z,100.00
2022-10-11T23:53:21.990Z,100.00
2022-10-11T23:56:25.062Z,100.00
2022-10-11T23:59:27.786Z,100.00
